All Spectrum Aviation - Van Nuys Airport - KVNY

HOME

Condor Squadron KVNY Webcam

Visit our Electronics Store

Condor Squadron Webcam - Van Nuys Airport - KVNY
Picture taken: Wed, 21 Nov 2018 06:04:33 -0800
YouTube Channel!    Latest Timelapse Movie    Full Size Image    Regular Size Image    

2018/11/21 13:51 KVNY 211351Z 00000KT 8SM FEW010 11/06 A3010 RMK AO2 SLP189 T01110056

HOME

Condor Squadron KVNY Webcam

Visit our Electronics Store